Humboldt, Illinois
Current Conditions -  °F | °C
As of 5:53 AM on Friday 24 Oct 2014 (Local Time) from KMTO Reporting Station
Overcast Overcast  
Wind Chill: 52°   Ceiling: 2600
Heat Index: 52°   Visibility: 10mi
Dew Point: 45°   Wind: 5mph
Humidity: 77%   Direction: 180°S
Pressure: 30.09"   Gusts: NA
Location:  39.6°N, 88.32°W
Report Text: KMTO 241053Z AUTO 18004KT 10SM OVC026 11/07 A3009 RMK AO2 SLP188 T01110072
Loading
Personal Weather Stations






























Interactive Weather Map
Tropical Storm Tracking
New forecast layout! Learn more

10-Day Weather Forecast

Advertisements
Track Severe Weather on mobile